Gustav Claesson

Scout - BK Hacken
3 Apr 2027
Samstag
Verarbeitung

Persönlichkeit

Anpassungsfähigkeit (3) Ehrgeiz (8) Kontroverse (1) Loyalität (3) Druck (16) Professionalität (16) Fairness (14) Temperament (18)

Profil

Trainerstil Demokratisch
Lizenz Nationale A
Entschlossenheit 11
Menschenführung 4
Motivation 12
Disziplin 12
Arbeitszufriedenheit
74%
Ermüdung
0%
Rolle Scout
Gehalt 55.5K p/W
Vertrag 14.03.2028

Leistung

Verhalten Gut
Trainingseffektivität
30%
Spielerentwicklung
25%
Verletzungsprävention
20%
Taktische Umsetzung
25%

Letzte Ereignisse

Spieler begutachtet jetzt
Nahm an einer Scouting-Besprechung teil jetzt
Spieler begutachtet jetzt
Sprach sich gegen ein Transferziel aus 7T her
Spieler begutachtet 7T her
Spieler begutachtet 7T her
Spieler begutachtet 7T her
Spieler begutachtet 7T her

Aktuell beobachtet

151
Spieler Verein Status Fähigkeit Vertrauen Beobachtet Zuletzt beobachtet Letzte Stimme
Seidu Basit Ashanti Gold Aktiv 86 / 81 40% 2 02.04.2027 -
Nico Paz Como Aktiv 159 / 166 40% 1 02.04.2027 -
Ekain Orobengoa Real Sociedad Aktiv 102 / 110 40% 1 31.03.2027 -
Stephen Amankona Aduana Stars Aktiv 101 / 106 40% 1 31.03.2027 -
Martin Petkov Botev Vratsa Aktiv 101 / 108 40% 1 31.03.2027 -
Kwadwo Obeng Junior Heart of Lions Aktiv 83 / 78 40% 2 30.03.2027 -
Danyil Alefirenko Chornomorets Aktiv 104 / 114 40% 1 30.03.2027 -
Jorge Padilla Cherno More Aktiv 103 / 111 40% 1 29.03.2027 -
Uriël Van Aalst Willem II Aktiv 110 / 110 40% 1 29.03.2027 -
Moussa Yeo Swansea City Aktiv 116 / 126 40% 1 29.03.2027 -
Jaygo van Ommeren Utrecht Aktiv 107 / 119 40% 1 28.03.2027 -
Tiago Freitas Benfica Aktiv 104 / 113 40% 1 28.03.2027 -
Jakub Adkonis Lechia Aktiv 97 / 101 40% 1 28.03.2027 -
Andrii Khoma Chornomorets Aktiv 99 / 96 40% 2 27.03.2027 -
Alessio Nepi Perugia Aktiv 109 / 97 40% 1 27.03.2027 -
Fabio Abiuso Carrarese Aktiv 116 / 109 40% 1 27.03.2027 -
Itumeleng Zungu Free State Stars Aktiv 105 / 120 40% 1 27.03.2027 -
Alessio Insignito Spezia Aktiv 93 / 108 40% 1 27.03.2027 -
Marius Courcoul Angers SCO Aktiv 110 / 120 40% 1 27.03.2027 -
Carlos Paraco Metalist Aktiv 112 / 117 40% 2 23.03.2027 -
Paul Glatzel Swindon Town Aktiv 98 / 90 40% 1 23.03.2027 -
Noah Ek Orel Aktiv 75 / 67 40% 1 22.03.2027 -
Samuele Diodato Lumezzane Aktiv 87 / 95 40% 1 22.03.2027 -
Martim Cunha Porto Aktiv 105 / 100 40% 1 22.03.2027 -
Peter Itodo Metalist Aktiv 107 / 108 40% 1 21.03.2027 -
Jerome Karelse Golden Arrows Aktiv 113 / 103 40% 1 21.03.2027 -
Dylan Lawlor Cardiff City Aktiv 112 / 124 40% 1 20.03.2027 -
Gopolang Taunyane Wa All Stars Aktiv 95 / 104 40% 1 20.03.2027 -
Jake Batty Burton Albion Aktiv 103 / 100 40% 1 20.03.2027 -
Ramadan Mohsen Zamalek Aktiv 126 / 131 40% 1 20.03.2027 -
Kwame Opoku Asante Kotoko Aktiv 101 / 90 40% 1 20.03.2027 -
Samson Tovide Colchester United Aktiv 96 / 108 40% 1 20.03.2027 -
Danny Butterworth Bromley Aktiv 87 / 93 40% 1 18.03.2027 -
Calum Kavanagh Oldham Athletic Aktiv 100 / 100 40% 1 16.03.2027 -
Amos Inusah Wa All Stars Aktiv 99 / 113 40% 1 16.03.2027 -
Andrii Riznyk Ahrobiznes Aktiv 91 / 86 40% 1 16.03.2027 -
Teboho Tau Ajax Cape Town Aktiv 118 / 114 40% 4 15.03.2027 -
James Dornelly Peterborough United Aktiv 104 / 105 40% 1 15.03.2027 -
Kirill Danilin Fakel Aktiv 103 / 111 40% 1 15.03.2027 -
Ibrahim Cissoko Zwolle Aktiv 121 / 122 40% 2 13.03.2027 -
Jenson Metcalfe Bradford City Aktiv 104 / 112 40% 1 13.03.2027 -
Mark Helm Fleetwood Town Aktiv 109 / 100 40% 1 13.03.2027 -
Adam Kaied Zamalek Aktiv 114 / 103 40% 1 10.03.2027 -
Juan Carlos Pineda Beroe Aktiv 112 / 103 40% 1 10.03.2027 -
Akinkunmi Amoo Ismaily Aktiv 120 / 121 40% 2 09.03.2027 -
Wandile Duba Bidvest Wits Aktiv 106 / 99 40% 1 09.03.2027 -
Kyle John Port Vale Aktiv 109 / 103 40% 1 09.03.2027 -
Erick Ngcobo Black Aces Aktiv 116 / 112 40% 4 08.03.2027 -
Yannick Geiger AIK Abgelehnt 105 / 101 72% 1 08.03.2027 Ablehnen
Johnly Yfeko Exeter City Aktiv 106 / 112 40% 1 08.03.2027 -
Simon Ramabu Polokwane City Aktiv 97 / 106 40% 2 26.01.2027 -
Daniel Kyerewaa Reading Aktiv 113 / 115 40% 1 26.01.2027 -
Pedro Zenit Abgelehnt 136 / 136 40% 1 23.01.2027 Mehr Infos nötig
Matías González Volos NPS Aktiv 114 / 116 40% 1 23.01.2027 -
Ibrahim Tarek Masr El Makasa Aktiv 120 / 120 40% 5 21.01.2027 -
Sinoxolo Kwayiba Chippa United Aktiv 119 / 123 40% 1 21.01.2027 -
Juan Bezerra Zamalek Aktiv 119 / 129 40% 2 19.01.2027 -
Bradley Mothiba SuperSport United Aktiv 109 / 102 40% 2 19.01.2027 -
Malik Mothersille Stockport County Aktiv 112 / 112 40% 1 19.01.2027 -
Berna CSKA 1948 Aktiv 118 / 117 40% 2 18.01.2027 -
Diego Valencia Gornik Leczna Abgelehnt 109 / 109 40% 2 17.01.2027 Mehr Infos nötig
Goodman Mosele Chippa United Aktiv 113 / 99 40% 1 17.01.2027 -
Ali Soliman Masr El Makasa Aktiv 129 / 129 40% 2 13.01.2027 -
Tony Springett Cheltenham Town Aktiv 98 / 107 40% 4 13.01.2027 -
Artem Slesar Zorya Aktiv 109 / 121 40% 1 13.01.2027 -
Brooklyn Poggenpoel Maritzburg United Aktiv 112 / 97 40% 2 12.01.2027 -
Siyanda Ndlovu Hearts of Oak Aktiv 119 / 109 40% 2 12.01.2027 -
Ben Wiles Milton Keynes Dons Aktiv 115 / 109 40% 1 11.01.2027 -
Marcus Ifill Bromley Aktiv 99 / 112 40% 1 11.01.2027 -
Peter Federico Gornik Zabrze Aktiv 131 / 126 40% 1 09.01.2027 -
Vitalii Dakhnovskyi Bukovyna Aktiv 116 / 110 40% 1 07.01.2027 -
Keagan Hlatshwayo SuperSport United Aktiv 111 / 118 40% 1 07.01.2027 -
Mauro Rodrigues Botev Plovdiv Abgelehnt 114 / 116 40% 3 06.01.2027 Ablehnen
Tomás O'Connor Gimnasia y Esgrima Aktiv 123 / 135 40% 2 06.01.2027 -
Arinaldo Rrapaj Kolos Aktiv 115 / 107 40% 1 06.01.2027 -
Georgie Gent Barnsley Aktiv 111 / 113 40% 1 04.01.2027 -
Juan Pablo Gallego Fehervar Aktiv 114 / 115 40% 1 31.12.2026 -
Haissem Hassan Bloemfontein Celtic Aktiv 141 / 127 40% 5 30.12.2026 -
Petar Stanić Ludogorets Aktiv 135 / 140 40% 2 30.12.2026 -
Paddy Lane Reading Aktiv 113 / 107 40% 1 26.12.2026 -
Alfie Doughty Millwall Aktiv 124 / 123 40% 1 26.12.2026 -
Everton Bala Levski Aktiv 129 / 125 40% 2 24.12.2026 -
Louie Barry Sheffield Wednesday Aktiv 121 / 121 40% 1 24.12.2026 -
Gift Zwane Platinum Stars Aktiv 110 / 103 40% 1 23.12.2026 -
Flynn Downes Southampton Aktiv 133 / 133 40% 1 23.12.2026 -
Harry Clarke Preston Aktiv 127 / 133 40% 1 23.12.2026 -
Liam Millar Hull City Aktiv 126 / 123 40% 1 22.12.2026 -
Marcelo Allende Mamelodi Sundowns Aktiv 135 / 118 40% 6 21.12.2026 -
Patrik Wålemark Lech Aktiv 130 / 118 40% 1 16.12.2026 -
Sorba Thomas Stoke City Aktiv 135 / 121 40% 1 16.12.2026 -
Relebohile Mofokeng Orlando Pirates Aktiv 118 / 133 40% 2 15.12.2026 -
Koki Saito Queens Park Rangers Aktiv 119 / 131 40% 1 14.12.2026 -
Victor Lind Hammarby Aktiv 128 / 117 40% 3 12.12.2026 -
Bobby Clark Derby County Aktiv 123 / 125 40% 1 12.12.2026 -
Camilo Durán Bloemfontein Celtic Aktiv 113 / 129 40% 2 11.12.2026 -
Reda Khadra Qarabag Aktiv 127 / 141 40% 2 10.12.2026 -
Jovon Makama Norwich City Aktiv 118 / 124 40% 1 10.12.2026 -
Imrân Louza Watford Aktiv 136 / 138 40% 1 07.12.2026 -
Ali Ahmed Norwich City Aktiv 121 / 119 40% 1 07.12.2026 -
Mohamed-Ali Cho Hull City Aktiv 134 / 141 40% 1 07.12.2026 -
Leandro Andrade Polissia Aktiv 128 / 136 40% 3 05.12.2026 -
Richard Koné Queens Park Rangers Aktiv 120 / 124 40% 1 05.12.2026 -
Lucas Assadi AIK Aktiv 129 / 138 40% 1 05.12.2026 -
Angelo Gattermayer Wolfsberger AC Abgelehnt 126 / 128 40% 4 03.12.2026 Ablehnen
Jens Petter Hauge Bodo/Glimt Aktiv 143 / 144 40% 1 03.12.2026 -
Giorgi Chakvetadze Watford Aktiv 126 / 124 40% 1 03.12.2026 -
Mduduzi Shabalala Kaizer Chiefs Aktiv 107 / 125 40% 2 02.12.2026 -
Tshepang Moremi Orlando Pirates Aktiv 106 / 107 40% 1 02.12.2026 -
Robert Petkovic Zadar Aktiv 120 / 118 40% 1 02.12.2026 -
Ronaldo Vásquez Sumgayit Aktiv 123 / 105 40% 1 01.12.2026 -
Johan Hove AIK Aktiv 120 / 114 40% 1 01.12.2026 -
Jaminton Campaz Rosario Central Aktiv 124 / 122 40% 1 28.11.2026 -
José Barreto Fehervar Aktiv 118 / 103 40% 1 28.11.2026 -
Tadeo Allende Inter Miami CF Aktiv 129 / 128 40% 1 25.11.2026 -
Juan Bisanz Huracán Aktiv 132 / 128 40% 1 24.11.2026 -
Matthias Seidl Rapid Wien Aktiv 127 / 131 40% 1 22.11.2026 -
Suleiman Camara Slovan Bratislava Aktiv 116 / 120 40% 2 21.11.2026 -
José Paradela Cruz Azul Aktiv 134 / 138 40% 2 21.11.2026 -
Helinho Toluca Aktiv 124 / 124 40% 1 21.11.2026 -
Ammar Ramadan DAC Dunajska Streda Aktiv 122 / 122 40% 2 20.11.2026 -
Jack Currie Oxford United Aktiv 122 / 129 40% 1 20.11.2026 -
Erik Botheim Malmo FF Aktiv 134 / 129 40% 1 20.11.2026 -
Marco Pašalić Orlando City Aktiv 134 / 127 40% 2 15.11.2026 -
Agustín Ramírez Inter Aktiv 106 / 117 40% 1 15.11.2026 -
Ola Brynhildsen Bodo/Glimt Aktiv 132 / 117 40% 1 13.11.2026 -
Nicolás Fernández Mercau New York City Aktiv 135 / 134 40% 1 07.11.2026 -
Kyreece Lisbie Colchester United Aktiv 103 / 110 40% 1 05.11.2026 -
Jesus Ferreira Seattle Sounders Aktiv 121 / 133 40% 1 03.11.2026 -
Nazar Voloshyn Dynamo Kyiv Aktiv 134 / 134 40% 2 02.11.2026 -
Iván Angulo Orlando City Aktiv 131 / 124 40% 3 02.11.2026 -
Itumeleng Tau Ajax Cape Town Aktiv 118 / 117 40% 3 02.11.2026 -
Alejo Dramisino Honved Aktiv 114 / 113 40% 1 28.10.2026 -
Emil Ceïde Rosenborg Aktiv 129 / 128 40% 1 28.10.2026 -
Hampus Skoglund Hammarby Aktiv 125 / 128 40% 1 25.10.2026 -
Markus Karlsson Hammarby Aktiv 119 / 124 40% 2 23.10.2026 -
Conrad Wallem Valerenga Aktiv 129 / 126 40% 1 23.10.2026 -
Riqui Puig LA Galaxy Aktiv 136 / 130 40% 1 21.10.2026 -
Oswin Appollis Orlando Pirates Aktiv 116 / 128 40% 1 17.10.2026 -
Sergey Pinyaev Lokomotiv Moscow Aktiv 128 / 135 40% 1 16.10.2026 -
André Luiz Sporting Kansas City Aktiv 137 / 121 40% 1 16.10.2026 -
Bénie Traoré New York City Aktiv 128 / 113 40% 1 14.10.2026 -
Max Larsson Djurgarden Aktiv 111 / 120 40% 1 14.10.2026 -
Bongokuhle Hlongwane Minnesota United FC Aktiv 136 / 131 40% 1 10.10.2026 -
Emmanuel Ekong Malmo FF Aktiv 112 / 116 40% 1 10.10.2026 -
Liel Abada Charlotte Football Club Aktiv 135 / 144 40% 1 10.10.2026 -
Eskil Edh AIK Aktiv 113 / 119 40% 1 08.10.2026 -
Mads Roerslev Southampton Aktiv 130 / 122 40% 1 08.10.2026 -
Telasco Segovia Inter Miami CF Aktiv 136 / 126 40% 1 07.10.2026 -
Luca Langoni New England Revolution Aktiv 128 / 137 40% 1 07.10.2026 -
Ho-yeon Jung Minnesota United FC Aktiv 119 / 128 40% 1 05.10.2026 -
Jalil Elías Tigre Aktiv 125 / 108 40% 1 02.08.2026 -